CW4352 Castellarano IT current weather conditions

sailwx.info

Wind from 239

Air temperature 10.6° C
Dewpoint -2.1° C

Last reported at 2019-Dec-14 11:42 UTC.
Time now 2019-Dec-14 12:54 UTC

Location: N 44°32' E 010°45'.
View on Google Maps.

See reports from other nearby stations

  
Tides and Currents Weather Stations Pressure Air Temp Water Temp Dewpoint Dewpoint Depression Visibility Wind Speed Wind Dir Waves Ship Positions
date/time (UTC)wind fromknots sea level pressurealtimeterstation pressurevisibilityair tempwater tempwave heightnotes
2019-Dec-14 11:42 239 10.6
2019-Dec-14 11:37 239 10.6
2019-Dec-14 11:32 239 10.0
2019-Dec-14 11:12 239 10.0
2019-Dec-14 11:07 239 10.0
2019-Dec-14 11:02 239 10.0
2019-Dec-14 10:47 239 10.0
2019-Dec-14 10:42 239 9.4
2019-Dec-14 10:32 239 8.9
2019-Dec-14 10:17 239 8.9
2019-Dec-14 09:47 239 8.3
2019-Dec-14 09:37 239 7.8
2019-Dec-14 09:32 239 7.8
2019-Dec-14 08:47 239 6.1
2019-Dec-14 08:42 239 1 gusting 2 5.6
2019-Dec-14 08:17 248 1 gusting 2 5.0
2019-Dec-14 08:02 254 1 gusting 2 5.0
2019-Dec-14 07:42 279 1 gusting 2 5.6
2019-Dec-14 07:32 262 4 gusting 5 6.1
2019-Dec-14 07:17 278 4 gusting 5 5.6
2019-Dec-14 07:12 274 2 gusting 4 5.6
2019-Dec-14 07:02 252 2 gusting 2 5.6
2019-Dec-14 06:47 5.6
2019-Dec-14 06:37 5.6
2019-Dec-14 06:32 5.6
2019-Dec-14 06:12 5.6
2019-Dec-14 06:07 5.6
2019-Dec-14 05:42 5.6
2019-Dec-14 05:37 5.6
2019-Dec-14 05:32 5.6
2019-Dec-14 05:17 254 2 gusting 2 5.6
2019-Dec-14 05:12 261 2 gusting 4 5.6
2019-Dec-14 05:07 262 2 gusting 4 6.1
2019-Dec-14 05:02 261 2 gusting 4 6.1
2019-Dec-14 04:47 282 2 gusting 4 6.1
2019-Dec-14 04:42 271 2 gusting 2 6.1
2019-Dec-14 04:37 274 2 gusting 4 6.1
2019-Dec-14 04:32 274 1 gusting 4 6.1
2019-Dec-14 04:17 266 2 gusting 4 5.6
2019-Dec-14 04:12 253 2 gusting 4 5.6
2019-Dec-14 04:07 236 2 gusting 4 6.1
2019-Dec-14 04:02 238 1 gusting 2 6.1
2019-Dec-14 03:47 297 2 gusting 4 6.1
2019-Dec-14 03:42 267 2 gusting 4 6.7
2019-Dec-14 03:32 232 3 gusting 5 7.2
2019-Dec-14 03:17 248 3 gusting 4 7.2
2019-Dec-14 03:12 253 3 gusting 4 6.7
2019-Dec-14 03:07 264 2 gusting 4 6.1
2019-Dec-14 03:02 272 2 gusting 4 6.1
2019-Dec-14 02:47 271 1 gusting 2 6.7
2019-Dec-14 02:42 268 2 gusting 2 6.1
2019-Dec-14 02:37 265 2 gusting 2 6.1
2019-Dec-14 02:12 290 2 gusting 2 6.7
2019-Dec-14 02:07 250 1 gusting 2 7.2
2019-Dec-14 02:02 267 7.2
2019-Dec-14 01:47 274 1 gusting 2 7.2
2019-Dec-14 01:42 275 1 gusting 2 6.7
2019-Dec-14 01:32 296 1 gusting 2 6.7
2019-Dec-14 01:07 280 1 gusting 2 4.4
2019-Dec-14 01:02 241 0 gusting 1 3.9
2019-Dec-14 00:47 236 0 gusting 1 3.3
2019-Dec-14 00:42 236 0 gusting 1 3.3
2019-Dec-14 00:37 232 0 gusting 2 3.3
2019-Dec-14 00:32 057 3.3
2019-Dec-14 00:17 057 3.9
2019-Dec-14 00:07 057 0 gusting 2 4.4
2019-Dec-13 23:42 318 7.8
2019-Dec-13 23:37 318 7.8
2019-Dec-13 23:32 292 0 gusting 5 7.8
2019-Dec-13 23:17 283 2 gusting 5 7.2
2019-Dec-13 23:07 281 1 gusting 2 6.1
2019-Dec-13 23:02 005 6.7
2019-Dec-13 22:47 298 1 gusting 4 8.3
2019-Dec-13 22:42 296 2 gusting 4 8.3
2019-Dec-13 22:37 287 5 gusting 10 8.3
2019-Dec-13 22:17 269 4 gusting 13 7.8
2019-Dec-13 22:07 278 5 gusting 11 7.2
2019-Dec-13 22:02 283 4 gusting 10 6.7
2019-Dec-13 21:47 275 2 gusting 4 3.9
2019-Dec-13 21:37 256 2 gusting 4 1.7
2019-Dec-13 21:32 269 2 gusting 4 0.6
2019-Dec-13 21:17 210 2 gusting 2 -0.6
2019-Dec-13 21:12 190 1 gusting 2 -0.6
2019-Dec-13 21:02 228 0 gusting 2 -0.6
2019-Dec-13 20:47 234 1 gusting 2 -0.6
2019-Dec-13 20:42 216 1 gusting 2 -0.6
2019-Dec-13 20:37 168 -0.6
2019-Dec-13 20:32 168 -0.6
2019-Dec-13 20:17 168 -0.0
2019-Dec-13 20:12 168 -0.0
2019-Dec-13 20:07 168 0.6
2019-Dec-13 20:02 201 0.6
2019-Dec-13 19:32 011 1 gusting 6 1.7
2019-Dec-13 19:17 032 4 gusting 7 3.9
2019-Dec-13 19:12 304 2 gusting 5 3.9
2019-Dec-13 19:02 334 1 gusting 6 3.9
2019-Dec-13 18:47 285 2 gusting 5 3.3
2019-Dec-13 18:42 279 2 gusting 5 3.3
2019-Dec-13 18:37 275 1 gusting 2 2.8
2019-Dec-13 18:32 351 1 gusting 6 2.8
2019-Dec-13 18:17 288 2 gusting 6 3.3
2019-Dec-13 18:12 275 4 gusting 10 3.3
2019-Dec-13 18:07 274 6 gusting 10 2.8
2019-Dec-13 18:02 262 6 gusting 14 2.8
2019-Dec-13 17:42 244 4 gusting 7 1.7
2019-Dec-13 17:17 277 5 gusting 6 1.7
2019-Dec-13 17:07 265 3 gusting 5 1.7
2019-Dec-13 16:42 257 4 gusting 6 1.1
2019-Dec-13 16:32 271 4 gusting 11 1.1
2019-Dec-13 16:12 265 4 gusting 7 1.1
2019-Dec-13 16:02 270 6 gusting 13 1.1
2019-Dec-13 15:47 278 5 gusting 10 0.6
2019-Dec-13 15:42 269 4 gusting 10 0.6
2019-Dec-13 15:37 275 3 gusting 8 0.6
2019-Dec-13 15:32 277 5 gusting 31 0.6
2019-Dec-13 15:17 291 2 gusting 5 0.6
2019-Dec-13 15:12 280 3 gusting 7 0.6
2019-Dec-13 15:07 278 4 gusting 13 0.6
2019-Dec-13 15:02 269 2 gusting 19 0.6
2019-Dec-13 14:47 275 8 gusting 25 -0.0
2019-Dec-13 14:42 279 7 gusting 21 -0.0
2019-Dec-13 14:37 280 6 gusting 21 -0.0
2019-Dec-13 14:32 279 6 gusting 18 -0.0
2019-Dec-13 14:17 268 3 gusting 10 -0.0
2019-Dec-13 14:07 280 5 gusting 10 -0.0
2019-Dec-13 14:02 278 3 gusting 19 -0.0
2019-Dec-13 13:47 282 4 gusting 7 -0.0
2019-Dec-13 13:42 278 3 gusting 8 -0.0
2019-Dec-13 13:32 291 3 gusting 10 -0.6
2019-Dec-13 13:17 301 4 gusting 7 -0.6
2019-Dec-13 13:12 300 7 gusting 10 -0.6
2019-Dec-13 13:07 299 3 gusting 8 -0.6
2019-Dec-13 12:42 301 3 gusting 13 -0.6
2019-Dec-13 12:37 300 3 gusting 6 -0.6
2019-Dec-13 12:32 273 1 gusting 6 -0.6
2019-Dec-13 12:17 278 0 gusting 2 -0.6
2019-Dec-13 12:12 280 3 gusting 6 -0.6
2019-Dec-13 12:02 288 4 gusting 10 -0.6
2019-Dec-13 11:47 322 3 gusting 6 -0.6
2019-Dec-13 11:42 304 2 gusting 6 -0.6
2019-Dec-13 11:32 318 2 gusting 4 -0.6
2019-Dec-13 11:17 340 2 gusting 4 -0.6
2019-Dec-13 11:12 311 1 gusting 4 -0.6
2019-Dec-13 11:07 334 3 gusting 5 -0.6
2019-Dec-13 10:47 347 1 gusting 2 -0.6
2019-Dec-13 10:42 306 -0.6
2019-Dec-13 10:37 306 -0.6
2019-Dec-13 10:32 306 0 gusting 1 -0.6
2019-Dec-13 10:07 306 0 gusting 2 -0.6
2019-Dec-13 10:02 305 1 gusting 2 -0.6
2019-Dec-13 09:47 305 0 gusting 2 -0.6
2019-Dec-13 09:37 318 1 gusting 2 -0.6
2019-Dec-13 09:32 335 1 gusting 2 -0.6
2019-Dec-13 09:02 332 1 gusting 2 -0.6
2019-Dec-13 08:47 355 -0.6
2019-Dec-13 08:42 355 0 gusting 1 -0.6
2019-Dec-13 08:37 355 -0.6
2019-Dec-13 08:32 355 1 gusting 2 -0.6
2019-Dec-13 08:12 010 -0.6
2019-Dec-13 08:07 004 -0.0
2019-Dec-13 08:02 -0.0
2019-Dec-13 07:47 -0.0
2019-Dec-13 07:42 -0.0
2019-Dec-13 07:37 -0.0
2019-Dec-13 07:17 -0.0
2019-Dec-13 07:12 -0.0
2019-Dec-13 07:07 -0.0
2019-Dec-13 07:02 -0.0
2019-Dec-13 06:47 -0.0
2019-Dec-13 06:37 -0.0
2019-Dec-13 06:32 -0.0
2019-Dec-13 06:07 -0.0
2019-Dec-13 05:42 -0.0
2019-Dec-13 05:37 -0.0
2019-Dec-13 05:12 039 1 gusting 1 -0.0
2019-Dec-13 05:07 039 0 gusting 1 -0.0
2019-Dec-13 05:02 040 -0.0
2019-Dec-13 04:47 040 -0.0
2019-Dec-13 04:17 040 -0.0
2019-Dec-13 04:12 040 -0.0
2019-Dec-13 04:07 040 -0.0
2019-Dec-13 03:47 040 -0.0
2019-Dec-13 03:37 040 -0.0
2019-Dec-13 03:32 040 -0.0
2019-Dec-13 03:17 040 -0.0
2019-Dec-13 03:12 040 -0.0
2019-Dec-13 03:07 040 -0.0
2019-Dec-13 03:02 040 -0.0
2019-Dec-13 02:47 040 -0.0
2019-Dec-13 02:42 040 -0.6
2019-Dec-13 02:17 040 -0.6
2019-Dec-13 02:12 040 -0.6
2019-Dec-13 02:07 040 -0.6
2019-Dec-13 01:47 040 -0.6
2019-Dec-13 01:42 040 1 gusting 1 -1.1
2019-Dec-13 01:37 040 0 gusting 1 -1.1
2019-Dec-13 01:12 040 0 gusting 1 -1.1
2019-Dec-13 01:07 041 0 gusting 1 -1.1
2019-Dec-13 01:02 041 0 gusting 1 -1.1
2019-Dec-13 00:47 041 0 gusting 1 -0.6
2019-Dec-13 00:42 041 0 gusting 1 -0.6
2019-Dec-13 00:17 041 1 gusting 2 -0.6
2019-Dec-13 00:12 042 0 gusting 1 -0.6
2019-Dec-12 23:42 041 -1.1
2019-Dec-12 23:37 041 -1.1
2019-Dec-12 23:32 041 -1.1
2019-Dec-12 23:02 041 -0.6
2019-Dec-12 22:47 041 -0.6
2019-Dec-12 22:32 041 -0.0
2019-Dec-12 22:12 041 -0.0
2019-Dec-12 22:02 041 -0.0
2019-Dec-12 21:47 041 1 gusting 2 0.6
2019-Dec-12 21:42 041 1 gusting 2 0.6
2019-Dec-12 21:32 039 1 gusting 2 1.1
2019-Dec-12 21:12 273 1 gusting 2 1.7
2019-Dec-12 21:02 257 1 gusting 4 1.7
2019-Dec-12 20:47 254 2 gusting 4 1.7
2019-Dec-12 20:42 253 2 gusting 4 1.7
2019-Dec-12 20:37 236 2 gusting 2 1.7
2019-Dec-12 20:32 240 2 gusting 4 1.7
2019-Dec-12 20:17 249 2 gusting 2 1.7
2019-Dec-12 20:12 252 1 gusting 2 1.7
2019-Dec-12 20:07 250 2 gusting 2 1.7
2019-Dec-12 19:47 246 1 gusting 2 2.2
2019-Dec-12 19:42 243 1 gusting 1 2.2
2019-Dec-12 19:37 243 1 gusting 1 2.2
2019-Dec-12 19:32 243 0 gusting 2 2.2
2019-Dec-12 19:17 242 0 gusting 1 2.2
2019-Dec-12 19:07 242 0 gusting 2 2.2
2019-Dec-12 19:02 242 0 gusting 2 2.2
2019-Dec-12 18:47 242 1 gusting 2 2.2
2019-Dec-12 18:32 234 0 gusting 2 2.2
2019-Dec-12 18:17 257 2 gusting 2 2.2
2019-Dec-12 18:12 268 1 gusting 2 2.8
2019-Dec-12 17:37 240 2 gusting 2 2.8
2019-Dec-12 17:32 230 2 gusting 2 2.8
2019-Dec-12 17:17 303 0 gusting 1 2.8
2019-Dec-12 17:12 304 0 gusting 1 2.8
2019-Dec-12 17:07 304 1 gusting 2 2.8
2019-Dec-12 16:47 314 1 gusting 2 2.8
2019-Dec-12 16:42 303 1 gusting 2 2.8
2019-Dec-12 16:37 291 1 gusting 2 2.8
2019-Dec-12 16:32 283 1 gusting 2 2.8
2019-Dec-12 16:17 272 1 gusting 2 2.8
2019-Dec-12 16:12 278 2 gusting 4 2.8
2019-Dec-12 16:07 266 1 gusting 2 2.8
2019-Dec-12 15:47 249 1 gusting 2 2.8
2019-Dec-12 15:42 264 2.8
2019-Dec-12 15:37 266 1 gusting 2 2.8
2019-Dec-12 15:32 273 0 gusting 2 2.8
2019-Dec-12 15:17 350 2.8
2019-Dec-12 15:12 350 0 gusting 1 2.8
2019-Dec-12 15:07 351 0 gusting 2 2.8
2019-Dec-12 15:02 344 0 gusting 2 2.8
2019-Dec-12 14:42 271 1 gusting 4 2.8
2019-Dec-12 14:17 275 1 gusting 4 2.8
2019-Dec-12 14:12 289 2 gusting 5 2.8
2019-Dec-12 14:07 254 2 gusting 4 2.8
2019-Dec-12 14:02 260 3 gusting 5 2.8
2019-Dec-12 13:47 262 2 gusting 4 2.2
2019-Dec-12 13:42 330 0 gusting 2 2.2
2019-Dec-12 13:37 321 1 gusting 2 2.2
2019-Dec-12 13:32 331 0 gusting 2 2.2
2019-Dec-12 13:17 356 0 gusting 2 2.2
2019-Dec-12 13:12 347 1 gusting 2 1.7
2019-Dec-12 13:07 304 1 gusting 2 1.7
2019-Dec-12 13:02 323 2 gusting 4 1.7
2019-Dec-12 12:47 313 1 gusting 2 1.1
2019-Dec-12 12:42 310 0 gusting 1 1.1
2019-Dec-12 12:37 310 0 gusting 1 1.1
2019-Dec-12 12:32 311 0 gusting 2 1.1
2019-Dec-12 12:17 310 1 gusting 2 1.1
2019-Dec-12 12:12 312 1 gusting 2 1.1
2019-Dec-12 12:07 350 0 gusting 2 1.1
2019-Dec-12 12:02 355 0 gusting 2 1.1